Time;durP1;ratioP1;P1;durP2;ratioP2;P2;SDS_P1;SDS_P2;PMS_P1;PMS_P2;Temp;Humidity;BMP_temperature;BMP_pressure;BME280_temperature;BME280_humidity;BME280_pressure;Samples;Min_cycle;Max_cycle;Signal;HPM_P1;HPM_P2
2021/08/22 00:01:11;;;;;;;8.60;4.38;;;24.00;60.00;;;;;;5114769;28;20048;-71
2021/08/22 00:03:37;;;;;;;7.45;3.72;;;24.00;59.70;;;;;;5114681;28;20024;-70
2021/08/22 00:06:02;;;;;;;9.40;4.40;;;24.10;59.40;;;;;;5114545;28;20450;-71
2021/08/22 00:08:28;;;;;;;10.00;4.60;;;24.10;59.20;;;;;;5114940;28;20028;-69
2021/08/22 00:10:54;;;;;;;6.90;4.20;;;24.10;59.20;;;;;;5113926;28;20040;-70
2021/08/22 00:13:22;;;;;;;5.05;3.67;;;24.00;59.40;;;;;;5114648;28;20028;-71
2021/08/22 00:15:47;;;;;;;13.80;4.55;;;23.90;59.80;;;;;;5114596;28;20054;-71
2021/08/22 00:18:13;;;;;;;5.90;4.30;;;23.80;60.60;;;;;;5114385;28;20384;-70
2021/08/22 00:20:39;;;;;;;8.48;3.97;;;23.70;60.20;;;;;;5114323;28;20032;-71
2021/08/22 00:23:05;;;;;;;8.65;4.10;;;23.60;60.30;;;;;;5114350;28;20032;-71
2021/08/22 00:25:31;;;;;;;8.60;3.92;;;23.70;61.10;;;;;;5114212;28;20028;-70
2021/08/22 00:27:58;;;;;;;7.38;4.00;;;23.70;60.60;;;;;;5114351;28;20035;-71
2021/08/22 00:30:24;;;;;;;7.15;4.10;;;23.60;61.30;;;;;;5114204;28;20036;-70
2021/08/22 00:32:49;;;;;;;6.43;3.90;;;23.50;61.90;;;;;;5114273;28;20106;-70
2021/08/22 00:35:15;;;;;;;7.60;3.90;;;23.50;61.50;;;;;;5114051;28;20098;-71
2021/08/22 00:37:41;;;;;;;7.75;3.95;;;23.50;61.40;;;;;;5114038;28;20063;-69
2021/08/22 00:40:08;;;;;;;5.50;3.60;;;23.50;62.40;;;;;;5114020;28;20047;-70
2021/08/22 00:42:35;;;;;;;7.07;3.92;;;23.50;61.60;;;;;;5114131;28;20043;-70
2021/08/22 00:45:03;;;;;;;8.10;3.88;;;23.50;61.50;;;;;;5114003;28;20031;-71
2021/08/22 00:47:29;;;;;;;6.45;3.58;;;23.50;61.80;;;;;;5114078;28;20102;-70
2021/08/22 00:49:55;;;;;;;4.03;3.50;;;23.50;61.50;;;;;;5113955;28;20031;-70
2021/08/22 00:52:20;;;;;;;6.90;3.67;;;23.50;62.20;;;;;;5114030;28;20513;-69
2021/08/22 00:54:46;;;;;;;6.18;3.80;;;23.40;62.90;;;;;;5114180;28;20115;-70
2021/08/22 00:57:14;;;;;;;6.80;3.88;;;23.50;62.80;;;;;;5113928;28;20503;-70
2021/08/22 00:59:41;;;;;;;6.70;3.83;;;23.50;62.50;;;;;;5113368;28;20031;-69
2021/08/22 01:02:18;;;;;;;6.95;4.05;;;23.50;60.90;;;;;;5113839;28;20048;-70
2021/08/22 01:05:14;;;;;;;7.13;3.80;;;23.50;60.50;;;;;;5113533;28;20079;-68
2021/08/22 01:07:53;;;;;;;7.80;4.20;;;23.50;60.10;;;;;;5106007;28;20057;-70
2021/08/22 01:10:26;;;;;;;9.95;3.85;;;23.40;61.30;;;;;;5113881;28;20055;-70
2021/08/22 01:13:05;;;;;;;6.25;4.10;;;23.30;60.60;;;;;;5113507;28;20048;-71
2021/08/22 01:15:44;;;;;;;8.55;4.43;;;23.30;59.80;;;;;;5113863;28;20480;-71
2021/08/22 01:18:14;;;;;;;8.95;4.00;;;23.30;61.60;;;;;;5113555;28;20036;-69
2021/08/22 01:20:49;;;;;;;8.07;4.00;;;23.20;61.00;;;;;;5113208;28;20035;-70
2021/08/22 01:23:15;;;;;;;6.20;3.92;;;23.10;61.50;;;;;;5117861;28;20046;-70
2021/08/22 01:25:43;;;;;;;7.88;3.72;;;23.10;61.30;;;;;;5117727;28;20471;-70
2021/08/22 01:28:10;;;;;;;7.90;3.40;;;23.00;62.00;;;;;;5117450;28;20035;-70
2021/08/22 01:30:43;;;;;;;7.72;3.80;;;23.00;62.00;;;;;;5117689;28;20036;-70
2021/08/22 01:33:15;;;;;;;7.45;3.88;;;23.00;60.90;;;;;;5117613;28;20043;-71
2021/08/22 01:35:42;;;;;;;4.18;3.60;;;23.00;60.90;;;;;;5117409;28;20028;-71
2021/08/22 01:38:09;;;;;;;6.65;3.55;;;23.00;60.50;;;;;;5117430;28;20043;-71
2021/08/22 01:40:35;;;;;;;6.50;3.50;;;23.00;60.20;;;;;;5117159;28;20032;-71
2021/08/22 01:43:03;;;;;;;9.20;3.65;;;23.10;60.30;;;;;;5117064;28;20408;-71
2021/08/22 01:45:30;;;;;;;7.28;3.53;;;23.10;60.40;;;;;;5117489;28;20072;-71
2021/08/22 01:47:56;;;;;;;7.43;4.10;;;23.20;61.00;;;;;;5117491;28;20032;-70
2021/08/22 01:50:23;;;;;;;4.88;3.50;;;23.10;60.90;;;;;;5117046;28;20032;-70
2021/08/22 01:52:51;;;;;;;5.28;3.60;;;23.20;61.00;;;;;;5117076;28;20498;-71
2021/08/22 01:55:17;;;;;;;6.65;3.80;;;23.10;62.00;;;;;;5117320;28;20051;-69
2021/08/22 01:57:43;;;;;;;4.57;3.17;;;23.10;61.50;;;;;;5116880;28;20036;-70
2021/08/22 02:00:10;;;;;;;5.20;3.45;;;23.10;61.00;;;;;;5117061;28;20408;-70
2021/08/22 02:02:38;;;;;;;6.93;3.75;;;23.20;60.00;;;;;;5117089;28;20519;-71
2021/08/22 02:05:05;;;;;;;6.15;3.90;;;23.20;59.30;;;;;;5116750;28;20478;-71
2021/08/22 02:07:33;;;;;;;6.80;4.18;;;23.20;59.30;;;;;;5117222;28;20387;-70
2021/08/22 02:10:14;;;;;;;4.10;3.20;;;23.20;59.50;;;;;;5117045;28;20448;-70
2021/08/22 02:12:40;;;;;;;5.63;3.97;;;23.10;59.70;;;;;;5117086;28;20035;-71
2021/08/22 02:15:10;;;;;;;5.75;3.60;;;23.00;59.40;;;;;;5116569;28;20031;-71
2021/08/22 02:17:58;;;;;;;6.88;3.72;;;22.90;61.00;;;;;;5116728;28;20055;-69
2021/08/22 02:20:25;;;;;;;6.70;4.10;;;22.90;60.90;;;;;;5115970;28;20153;-71
2021/08/22 02:22:53;;;;;;;8.35;3.58;;;22.80;60.60;;;;;;5116706;28;20044;-71
2021/08/22 02:25:20;;;;;;;6.65;4.10;;;22.80;61.00;;;;;;5116778;28;20089;-70
2021/08/22 02:27:46;;;;;;;7.10;3.78;;;22.70;61.00;;;;;;5116579;28;20059;-71
2021/08/22 02:30:13;;;;;;;5.82;3.78;;;22.60;60.70;;;;;;5116649;28;20477;-70
2021/08/22 02:32:39;;;;;;;7.45;4.10;;;22.60;62.30;;;;;;5115889;28;20035;-70
2021/08/22 02:35:05;;;;;;;6.25;3.60;;;22.60;62.30;;;;;;5116552;28;20111;-69
2021/08/22 02:37:32;;;;;;;8.38;3.92;;;22.50;62.20;;;;;;5116506;28;20613;-70
2021/08/22 02:39:57;;;;;;;8.98;3.65;;;22.50;62.10;;;;;;5116480;28;20388;-70
2021/08/22 02:42:24;;;;;;;6.50;4.28;;;22.50;63.10;;;;;;5116193;28;20040;-68
2021/08/22 02:44:49;;;;;;;8.68;3.78;;;22.50;63.60;;;;;;5116895;28;20030;-70
2021/08/22 02:47:15;;;;;;;5.78;3.38;;;22.50;64.10;;;;;;5116222;28;20040;-70
2021/08/22 02:49:42;;;;;;;9.27;3.70;;;22.40;63.30;;;;;;5116260;28;20115;-70
2021/08/22 02:52:08;;;;;;;7.45;4.00;;;22.50;62.50;;;;;;5115811;28;20032;-69
2021/08/22 02:54:34;;;;;;;6.82;3.90;;;22.40;62.10;;;;;;5116184;28;20102;-71
2021/08/22 02:56:59;;;;;;;7.15;4.65;;;22.40;62.60;;;;;;5116112;28;20071;-70
2021/08/22 02:59:25;;;;;;;5.35;3.63;;;22.30;63.90;;;;;;5115976;28;20051;-70
2021/08/22 03:01:51;;;;;;;9.85;4.30;;;22.40;62.60;;;;;;5115834;28;20048;-71
2021/08/22 03:04:16;;;;;;;5.03;3.95;;;22.50;62.10;;;;;;5115445;28;20389;-69
2021/08/22 03:06:42;;;;;;;5.75;3.85;;;22.40;62.10;;;;;;5115954;28;20428;-70
2021/08/22 03:09:08;;;;;;;10.57;3.92;;;22.40;63.20;;;;;;5115717;28;20544;-71
2021/08/22 03:11:33;;;;;;;7.22;4.57;;;22.40;64.00;;;;;;5115791;28;20035;-69
2021/08/22 03:14:00;;;;;;;7.18;3.75;;;22.40;64.10;;;;;;5116239;28;20028;-70
2021/08/22 03:16:25;;;;;;;7.32;3.72;;;22.40;62.90;;;;;;5115820;28;20118;-70
2021/08/22 03:18:51;;;;;;;5.95;3.97;;;22.40;63.00;;;;;;5115325;28;20169;-71
2021/08/22 03:21:17;;;;;;;5.10;3.83;;;22.40;62.70;;;;;;5115844;28;20046;-70
2021/08/22 03:23:43;;;;;;;6.55;3.95;;;22.30;62.70;;;;;;5115591;28;20483;-70
2021/08/22 03:26:08;;;;;;;4.85;3.90;;;22.40;63.30;;;;;;5115278;28;20515;-70
2021/08/22 03:28:35;;;;;;;5.80;3.72;;;22.30;62.70;;;;;;5115289;28;20059;-71
2021/08/22 03:31:01;;;;;;;5.65;4.28;;;22.30;64.10;;;;;;5115388;28;20042;-70
2021/08/22 03:33:27;;;;;;;6.85;3.50;;;22.30;63.70;;;;;;5115212;28;20031;-69
2021/08/22 03:35:52;;;;;;;4.97;3.60;;;22.20;63.40;;;;;;5115335;28;20032;-70
2021/08/22 03:38:18;;;;;;;4.82;3.17;;;22.30;62.80;;;;;;5115298;28;20397;-70
2021/08/22 03:40:44;;;;;;;6.05;3.55;;;22.30;63.30;;;;;;5115177;28;20392;-70
2021/08/22 03:43:09;;;;;;;5.97;3.75;;;22.30;63.20;;;;;;5114931;28;20218;-71
2021/08/22 03:45:35;;;;;;;6.68;3.65;;;22.30;64.10;;;;;;5114108;28;20027;-71
2021/08/22 03:48:01;;;;;;;6.38;3.53;;;22.40;62.30;;;;;;5115088;28;20036;-70
2021/08/22 03:50:26;;;;;;;4.22;3.20;;;22.40;61.20;;;;;;5115068;28;20107;-70
2021/08/22 03:52:52;;;;;;;4.47;3.58;;;22.50;61.30;;;;;;5114882;28;20039;-71
2021/08/22 03:55:19;;;;;;;7.90;3.53;;;22.50;61.70;;;;;;5114838;28;20067;-70
2021/08/22 03:57:45;;;;;;;5.78;3.38;;;22.40;61.50;;;;;;5114744;28;20609;-71
2021/08/22 04:00:11;;;;;;;5.72;3.63;;;22.50;61.60;;;;;;5114703;28;20070;-71
2021/08/22 04:02:37;;;;;;;5.45;3.35;;;22.40;61.40;;;;;;5114406;28;20044;-71
2021/08/22 04:05:04;;;;;;;4.53;3.47;;;22.40;62.00;;;;;;5114416;28;20050;-69
2021/08/22 04:07:30;;;;;;;5.85;3.63;;;22.40;62.00;;;;;;5114697;28;20169;-71
2021/08/22 04:09:57;;;;;;;7.60;3.53;;;22.30;61.90;;;;;;5096479;28;20102;-71
2021/08/22 04:12:23;;;;;;;3.97;3.40;;;22.30;62.40;;;;;;5114751;28;20059;-71
2021/08/22 04:14:48;;;;;;;9.70;3.45;;;22.20;63.10;;;;;;5114441;28;20116;-71
2021/08/22 04:17:14;;;;;;;5.82;3.47;;;22.20;63.40;;;;;;5114498;28;20071;-71
2021/08/22 04:19:42;;;;;;;4.30;3.60;;;22.20;62.50;;;;;;5114463;28;20027;-72
2021/08/22 04:22:09;;;;;;;6.70;3.78;;;22.20;62.50;;;;;;5114310;28;20124;-71
2021/08/22 04:24:35;;;;;;;9.27;3.20;;;22.20;62.60;;;;;;5114641;28;20028;-72
2021/08/22 04:27:02;;;;;;;3.75;3.10;;;22.20;63.10;;;;;;5114260;28;20468;-71
2021/08/22 04:29:29;;;;;;;10.48;3.72;;;22.10;63.20;;;;;;5114401;28;20028;-72
2021/08/22 04:31:54;;;;;;;5.40;3.60;;;22.10;63.60;;;;;;5114334;28;20050;-71
2021/08/22 04:34:21;;;;;;;9.15;3.70;;;22.10;63.00;;;;;;5114187;28;20119;-71
2021/08/22 04:36:47;;;;;;;7.75;3.55;;;22.20;62.70;;;;;;5114139;28;20043;-72
2021/08/22 04:39:13;;;;;;;4.65;3.63;;;22.20;62.50;;;;;;5114189;28;20031;-72
2021/08/22 04:41:43;;;;;;;6.35;3.42;;;22.10;63.40;;;;;;5113957;28;20031;-72
2021/08/22 04:44:09;;;;;;;4.13;3.42;;;22.10;63.30;;;;;;5114046;28;20089;-72
2021/08/22 04:46:35;;;;;;;5.10;3.63;;;22.10;63.20;;;;;;5113830;28;20031;-72
2021/08/22 04:49:00;;;;;;;7.43;3.80;;;22.10;63.00;;;;;;5113964;28;20036;-71
2021/08/22 04:51:27;;;;;;;5.80;3.75;;;22.20;63.10;;;;;;5113964;28;20108;-71
2021/08/22 04:53:52;;;;;;;7.15;3.53;;;22.10;64.30;;;;;;5113879;28;20032;-71
2021/08/22 04:56:18;;;;;;;4.70;3.60;;;22.10;63.40;;;;;;5113489;28;20040;-71
2021/08/22 04:58:44;;;;;;;5.75;3.67;;;22.10;64.00;;;;;;5113994;28;20031;-72
2021/08/22 05:01:10;;;;;;;6.28;3.47;;;22.10;63.60;;;;;;5113789;28;20048;-70
2021/08/22 05:03:35;;;;;;;8.43;3.85;;;22.10;63.40;;;;;;5113524;28;20181;-71
2021/08/22 05:06:01;;;;;;;8.90;3.60;;;22.10;63.40;;;;;;5113764;28;20475;-71
2021/08/22 05:08:27;;;;;;;8.20;3.80;;;22.20;63.30;;;;;;5113682;28;20046;-71
2021/08/22 05:10:56;;;;;;;4.93;3.50;;;22.20;63.60;;;;;;5113718;28;20028;-71
2021/08/22 05:13:22;;;;;;;7.03;4.00;;;22.20;63.90;;;;;;5113713;28;20039;-71
2021/08/22 05:15:50;;;;;;;9.93;4.30;;;22.20;64.30;;;;;;5113570;28;20067;-71
2021/08/22 05:18:19;;;;;;;6.35;3.60;;;22.30;62.80;;;;;;5114122;28;20118;-72
2021/08/22 05:20:45;;;;;;;4.53;3.65;;;22.30;62.10;;;;;;5115280;28;20165;-71
2021/08/22 05:23:11;;;;;;;10.18;3.63;;;22.30;62.10;;;;;;5116033;28;20489;-71
2021/08/22 05:25:37;;;;;;;5.00;3.75;;;22.20;62.50;;;;;;5113526;28;20042;-72
2021/08/22 05:28:02;;;;;;;5.97;3.72;;;22.20;62.70;;;;;;5113499;28;20483;-71
2021/08/22 05:30:28;;;;;;;4.40;3.50;;;22.20;63.60;;;;;;5113354;28;20481;-71
2021/08/22 05:32:54;;;;;;;7.25;3.67;;;22.20;63.20;;;;;;5113668;28;20031;-71
2021/08/22 05:35:19;;;;;;;4.90;3.55;;;22.20;62.90;;;;;;5113559;28;20031;-71
2021/08/22 05:37:45;;;;;;;7.05;3.38;;;22.30;62.60;;;;;;5113727;28;20032;-71
2021/08/22 05:40:11;;;;;;;7.07;3.95;;;22.40;62.70;;;;;;5113405;28;20115;-71
2021/08/22 05:42:37;;;;;;;14.48;3.65;;;22.40;62.70;;;;;;5113698;28;20043;-71
2021/08/22 05:45:03;;;;;;;7.32;3.40;;;22.40;63.10;;;;;;5113434;28;20098;-72
2021/08/22 05:47:28;;;;;;;7.88;3.17;;;22.40;62.60;;;;;;5113135;28;20043;-69
2021/08/22 05:49:54;;;;;;;6.55;3.78;;;22.40;63.20;;;;;;5113211;28;20106;-73
2021/08/22 05:52:20;;;;;;;5.18;3.63;;;22.40;62.20;;;;;;5113614;28;20046;-72
2021/08/22 05:54:45;;;;;;;6.32;3.83;;;22.50;61.00;;;;;;5113257;28;20032;-72
2021/08/22 05:57:11;;;;;;;6.30;3.58;;;22.50;61.80;;;;;;5113219;28;20096;-72
2021/08/22 05:59:37;;;;;;;4.22;3.45;;;22.50;61.40;;;;;;5113317;28;20038;-71
2021/08/22 06:02:02;;;;;;;7.97;3.42;;;22.60;61.20;;;;;;5113359;28;20051;-72
2021/08/22 06:04:28;;;;;;;4.85;3.20;;;22.70;61.30;;;;;;5112928;28;20556;-72
2021/08/22 06:06:54;;;;;;;4.78;3.25;;;22.80;61.00;;;;;;5113012;28;20050;-73
2021/08/22 06:09:20;;;;;;;8.88;3.50;;;22.90;60.80;;;;;;5117089;28;20130;-71
2021/08/22 06:11:45;;;;;;;11.85;4.13;;;22.90;60.90;;;;;;5117007;28;20114;-72
2021/08/22 06:14:11;;;;;;;6.43;3.28;;;23.00;61.00;;;;;;5117236;28;20031;-73
2021/08/22 06:16:36;;;;;;;7.95;3.42;;;23.10;59.90;;;;;;5116980;28;20032;-72
2021/08/22 06:19:02;;;;;;;6.88;3.42;;;23.20;59.10;;;;;;5116827;28;20058;-72
2021/08/22 06:21:28;;;;;;;4.05;2.85;;;23.30;59.70;;;;;;5116706;28;20122;-71
2021/08/22 06:23:57;;;;;;;6.93;3.55;;;23.30;59.40;;;;;;5116584;28;20368;-73
2021/08/22 06:26:25;;;;;;;6.38;3.25;;;23.40;59.70;;;;;;5116653;28;20036;-72
2021/08/22 06:28:51;;;;;;;7.65;3.53;;;23.50;59.70;;;;;;5116628;28;20463;-72
2021/08/22 06:31:17;;;;;;;8.35;3.45;;;23.50;59.70;;;;;;5116626;28;20070;-71
2021/08/22 06:33:43;;;;;;;6.30;3.42;;;23.60;59.60;;;;;;5116559;28;20063;-72
2021/08/22 06:36:08;;;;;;;6.20;3.25;;;23.60;59.70;;;;;;5116230;28;20502;-72
2021/08/22 06:38:34;;;;;;;5.45;3.47;;;23.70;59.60;;;;;;5116476;28;20036;-72
2021/08/22 06:41:01;;;;;;;4.90;3.70;;;23.80;59.70;;;;;;5116087;28;20031;-72
2021/08/22 06:43:27;;;;;;;10.63;3.50;;;23.80;60.50;;;;;;5116318;28;20109;-72
2021/08/22 06:45:52;;;;;;;4.85;3.20;;;23.90;60.00;;;;;;5116397;28;20024;-72
2021/08/22 06:48:18;;;;;;;5.63;3.63;;;23.90;59.60;;;;;;5115703;28;20031;-72
2021/08/22 06:50:44;;;;;;;8.48;3.70;;;24.00;59.90;;;;;;5116140;28;20067;-71
2021/08/22 06:53:10;;;;;;;4.70;3.80;;;24.10;59.80;;;;;;5115939;28;20115;-72
2021/08/22 06:55:36;;;;;;;4.75;3.20;;;24.10;59.40;;;;;;5116113;28;20028;-71
2021/08/22 06:58:01;;;;;;;6.97;3.47;;;24.20;59.10;;;;;;5116207;28;20126;-72
2021/08/22 07:00:27;;;;;;;4.40;3.58;;;24.20;59.40;;;;;;5116062;28;20107;-73
2021/08/22 07:02:53;;;;;;;5.00;3.47;;;24.20;58.80;;;;;;5115878;28;20096;-75
2021/08/22 07:05:19;;;;;;;6.20;3.30;;;24.30;58.60;;;;;;5115784;28;20043;-73
2021/08/22 07:07:44;;;;;;;6.63;3.70;;;24.40;58.40;;;;;;5115717;28;20043;-72
2021/08/22 07:10:11;;;;;;;6.40;3.63;;;24.40;58.90;;;;;;5115932;28;20376;-72
2021/08/22 07:12:37;;;;;;;8.70;3.65;;;24.50;58.70;;;;;;5115862;28;20077;-75
2021/08/22 07:15:03;;;;;;;5.88;3.65;;;24.60;58.90;;;;;;5115817;28;20504;-75
2021/08/22 07:17:29;;;;;;;7.25;4.03;;;24.60;58.80;;;;;;5115634;28;20028;-75
2021/08/22 07:19:54;;;;;;;8.38;3.70;;;24.60;58.20;;;;;;5114229;28;20553;-73
2021/08/22 07:22:20;;;;;;;6.65;3.47;;;24.70;58.10;;;;;;5115276;28;20046;-75
2021/08/22 07:24:46;;;;;;;4.95;3.22;;;24.80;57.70;;;;;;5115478;28;20119;-75
2021/08/22 07:27:13;;;;;;;8.82;3.53;;;24.80;58.30;;;;;;5115498;28;20392;-74
2021/08/22 07:29:39;;;;;;;9.05;3.55;;;24.90;58.40;;;;;;5115401;28;20110;-74
2021/08/22 07:32:05;;;;;;;3.92;3.15;;;24.90;58.30;;;;;;5115398;28;20041;-75
2021/08/22 07:34:31;;;;;;;6.68;3.88;;;25.00;57.90;;;;;;5115106;28;20494;-75
2021/08/22 07:36:57;;;;;;;8.07;3.65;;;25.00;57.40;;;;;;5114996;28;20059;-75
2021/08/22 07:39:22;;;;;;;7.47;3.17;;;25.10;57.10;;;;;;5114957;28;20495;-76
2021/08/22 07:41:48;;;;;;;6.45;3.00;;;25.20;56.50;;;;;;5114749;28;20040;-73
2021/08/22 07:44:14;;;;;;;4.72;3.63;;;25.20;56.70;;;;;;5115092;28;20039;-73
2021/08/22 07:46:39;;;;;;;6.88;3.67;;;25.30;56.00;;;;;;5114773;28;20035;-72
2021/08/22 07:49:05;;;;;;;9.32;3.53;;;25.30;55.80;;;;;;5114905;28;20495;-76
2021/08/22 07:51:31;;;;;;;5.75;3.30;;;25.40;55.70;;;;;;5115011;28;20027;-77
2021/08/22 07:53:56;;;;;;;4.70;3.05;;;25.50;55.20;;;;;;5114865;28;20391;-75
2021/08/22 07:56:22;;;;;;;7.70;3.55;;;25.50;55.40;;;;;;5114913;28;20028;-77
2021/08/22 07:58:48;;;;;;;7.93;3.17;;;25.60;55.40;;;;;;5114759;28;20034;-73
2021/08/22 08:01:13;;;;;;;7.88;3.70;;;25.60;55.20;;;;;;5114774;28;20051;-75
2021/08/22 08:03:39;;;;;;;5.05;3.35;;;25.70;54.90;;;;;;5114624;28;20030;-75
2021/08/22 08:06:05;;;;;;;6.25;3.25;;;25.80;54.40;;;;;;5114368;28;20130;-75
2021/08/22 08:08:31;;;;;;;5.65;3.00;;;25.80;54.00;;;;;;5114858;28;20110;-76
2021/08/22 08:10:56;;;;;;;4.45;2.95;;;25.90;53.90;;;;;;5114755;28;20036;-76
2021/08/22 08:13:22;;;;;;;6.13;3.45;;;25.90;53.80;;;;;;5114625;28;20442;-76
2021/08/22 08:15:48;;;;;;;6.45;3.60;;;26.00;53.70;;;;;;5114370;28;20051;-74
2021/08/22 08:18:13;;;;;;;7.80;3.33;;;26.00;53.80;;;;;;5114257;28;20348;-72
2021/08/22 08:20:39;;;;;;;4.85;3.08;;;26.10;53.50;;;;;;5114516;28;20472;-73
2021/08/22 08:23:05;;;;;;;5.22;4.28;;;26.20;53.40;;;;;;5114367;28;20411;-73
2021/08/22 08:25:30;;;;;;;5.28;3.30;;;26.20;53.40;;;;;;5114060;28;20047;-72
2021/08/22 08:27:56;;;;;;;6.38;3.08;;;26.30;53.20;;;;;;5114163;28;20024;-71
2021/08/22 08:30:22;;;;;;;5.32;3.47;;;26.40;53.20;;;;;;5113757;28;20043;-73
2021/08/22 08:32:48;;;;;;;5.93;3.25;;;26.50;53.50;;;;;;5114090;28;20039;-74
2021/08/22 08:35:13;;;;;;;4.30;3.17;;;26.60;53.60;;;;;;5113645;28;20042;-75
2021/08/22 08:37:40;;;;;;;5.78;3.35;;;26.70;53.20;;;;;;5113923;28;20024;-70
2021/08/22 08:40:13;;;;;;;5.00;3.42;;;26.80;52.50;;;;;;5114029;28;20388;-76
2021/08/22 08:42:46;;;;;;;6.78;3.25;;;26.80;52.30;;;;;;5113842;28;20043;-72
2021/08/22 08:45:17;;;;;;;5.40;3.60;;;26.90;52.30;;;;;;5113546;28;20063;-69
2021/08/22 08:47:45;;;;;;;5.18;3.22;;;26.90;52.10;;;;;;5113621;28;20334;-73
2021/08/22 08:50:20;;;;;;;7.45;3.33;;;27.00;52.70;;;;;;5114061;28;20397;-74
2021/08/22 08:53:17;;;;;;;8.43;3.58;;;27.10;52.50;;;;;;5113749;28;20118;-75
2021/08/22 08:55:54;;;;;;;7.60;3.47;;;27.20;51.70;;;;;;5112834;28;20495;-75
2021/08/22 08:58:20;;;;;;;6.95;3.25;;;27.20;52.50;;;;;;5113924;28;20032;-75
2021/08/22 09:00:47;;;;;;;7.53;3.45;;;27.20;52.30;;;;;;5113968;28;20035;-72
2021/08/22 09:03:14;;;;;;;8.65;3.38;;;27.30;51.70;;;;;;5113710;28;20050;-75
2021/08/22 09:05:42;;;;;;;5.35;3.38;;;27.40;52.90;;;;;;5113146;28;20094;-73
2021/08/22 09:08:23;;;;;;;9.57;3.42;;;27.50;52.60;;;;;;5113878;28;20123;-75
2021/08/22 09:11:26;;;;;;;7.95;3.55;;;27.60;51.80;;;;;;5113939;28;20036;-74
2021/08/22 09:14:10;;;;;;;6.13;3.53;;;27.60;51.70;;;;;;5113867;28;20067;-74
2021/08/22 09:17:00;;;;;;;7.55;3.90;;;27.70;51.70;;;;;;5113808;28;20038;-73
2021/08/22 09:19:56;;;;;;;8.77;3.67;;;27.80;51.90;;;;;;5113732;28;20032;-75
2021/08/22 09:22:59;;;;;;;7.63;3.60;;;27.80;51.20;;;;;;5113654;28;20044;-74
2021/08/22 09:25:55;;;;;;;10.20;3.50;;;27.90;51.40;;;;;;5113339;28;20055;-76
2021/08/22 09:28:51;;;;;;;4.85;3.58;;;28.00;51.70;;;;;;5113632;28;20031;-75
2021/08/22 09:31:45;;;;;;;10.23;3.63;;;28.00;51.60;;;;;;5113820;28;20028;-76
2021/08/22 09:34:32;;;;;;;8.45;3.25;;;28.10;51.40;;;;;;5113611;28;20384;-76
2021/08/22 09:37:06;;;;;;;7.85;3.65;;;28.20;51.60;;;;;;5113240;28;20106;-75
2021/08/22 09:40:09;;;;;;;9.98;3.40;;;28.20;51.00;;;;;;5113463;28;20027;-76
2021/08/22 09:43:15;;;;;;;6.68;3.90;;;28.30;51.10;;;;;;5114923;28;20036;-76
2021/08/22 09:46:18;;;;;;;5.10;3.40;;;28.40;52.00;;;;;;5117353;28;20040;-75
2021/08/22 09:49:22;;;;;;;4.82;3.50;;;28.50;51.40;;;;;;5117557;28;20036;-76
2021/08/22 09:51:48;;;;;;;9.55;4.32;;;28.50;51.20;;;;;;5117352;28;20481;-76
2021/08/22 09:54:28;;;;;;;9.88;3.45;;;28.70;51.20;;;;;;5117431;28;20034;-76
2021/08/22 09:57:31;;;;;;;10.80;3.78;;;28.70;50.70;;;;;;5117168;28;20066;-75
2021/08/22 10:00:18;;;;;;;8.32;4.47;;;28.80;50.40;;;;;;5117092;28;20066;-75
2021/08/22 10:02:56;;;;;;;4.82;2.92;;;28.90;48.90;;;;;;5117069;28;20050;-75
2021/08/22 10:05:49;;;;;;;8.00;3.75;;;28.90;49.50;;;;;;5117016;28;20101;-73
2021/08/22 10:08:28;;;;;;;10.68;3.83;;;29.00;49.10;;;;;;5117109;28;20113;-75
2021/08/22 10:11:03;;;;;;;11.38;3.50;;;29.00;49.20;;;;;;5117181;28;20040;-75
2021/08/22 10:13:35;;;;;;;15.15;3.00;;;29.10;49.40;;;;;;5116177;28;20084;-75
2021/08/22 10:16:01;;;;;;;7.10;3.45;;;29.10;49.40;;;;;;5116570;28;20040;-75
2021/08/22 10:18:27;;;;;;;3.92;3.05;;;29.10;49.10;;;;;;5117028;28;20024;-75
2021/08/22 10:21:01;;;;;;;6.53;3.97;;;29.20;49.30;;;;;;5116672;28;20089;-75
2021/08/22 10:23:40;;;;;;;9.88;3.22;;;29.20;49.60;;;;;;5117272;28;20507;-75
2021/08/22 10:26:07;;;;;;;9.43;3.30;;;29.20;49.00;;;;;;5117083;28;20395;-74
2021/08/22 10:28:44;;;;;;;9.20;3.67;;;29.30;48.70;;;;;;5116749;28;20046;-75
2021/08/22 10:31:11;;;;;;;6.30;3.58;;;29.30;48.70;;;;;;5116441;28;20027;-75
2021/08/22 10:33:59;;;;;;;7.72;3.58;;;29.40;47.80;;;;;;5116378;28;20487;-75
2021/08/22 10:36:31;;;;;;;7.82;3.40;;;29.30;48.00;;;;;;5116671;28;20421;-79
2021/08/22 10:39:15;;;;;;;;;;;29.40;48.20;;;;;;5116422;28;20470;-75
2021/08/22 10:41:42;;;;;;;5.13;3.53;;;29.50;48.40;;;;;;5116532;28;19912;-74
2021/08/22 10:44:33;;;;;;;6.25;3.08;;;29.50;48.20;;;;;;5116553;28;20092;-75
2021/08/22 10:47:02;;;;;;;6.82;3.53;;;29.60;48.90;;;;;;5116135;28;20381;-74
2021/08/22 10:49:52;;;;;;;10.65;3.20;;;29.60;48.10;;;;;;5116253;28;20031;-75
2021/08/22 10:52:25;;;;;;;6.63;2.90;;;29.60;46.20;;;;;;5116050;28;20035;-75
2021/08/22 10:55:12;;;;;;;10.70;2.88;;;29.60;46.20;;;;;;5115508;28;20028;-75
2021/08/22 10:57:49;;;;;;;5.55;2.78;;;29.60;46.70;;;;;;5116314;28;20040;-77
2021/08/22 11:00:26;;;;;;;5.75;3.05;;;29.60;45.50;;;;;;5115971;28;20472;-75
2021/08/22 11:03:00;;;;;;;8.38;3.13;;;29.70;46.50;;;;;;5116554;28;20488;-74
2021/08/22 11:05:27;;;;;;;5.47;3.38;;;29.60;45.00;;;;;;5115780;28;20035;-77
2021/08/22 11:07:55;;;;;;;6.97;3.30;;;29.70;45.60;;;;;;5115955;28;20039;-76
2021/08/22 11:10:27;;;;;;;8.48;3.80;;;29.70;46.00;;;;;;5115895;28;20081;-75
2021/08/22 11:12:53;;;;;;;5.95;3.20;;;29.70;45.80;;;;;;5115818;28;20074;-75
2021/08/22 11:15:26;;;;;;;4.70;2.88;;;29.70;46.10;;;;;;5115533;28;20055;-74
2021/08/22 11:17:57;;;;;;;7.70;3.20;;;29.80;45.80;;;;;;5116059;28;20078;-75
2021/08/22 11:20:26;;;;;;;5.33;3.13;;;29.70;45.80;;;;;;5115499;28;20449;-75
2021/08/22 11:23:04;;;;;;;7.20;3.40;;;29.80;46.70;;;;;;5097021;28;20396;-74
2021/08/22 11:25:30;;;;;;;4.13;2.75;;;29.80;45.20;;;;;;5116048;28;20027;-76
2021/08/22 11:28:11;;;;;;;8.10;3.13;;;29.90;45.00;;;;;;5120508;28;20100;-77
2021/08/22 11:30:39;;;;;;;6.50;2.90;;;29.90;45.10;;;;;;5115295;28;20046;-76
2021/08/22 11:33:06;;;;;;;7.13;3.40;;;29.90;45.20;;;;;;5115276;28;20035;-76
2021/08/22 11:35:35;;;;;;;7.30;3.08;;;29.90;44.00;;;;;;5115444;28;20127;-77
2021/08/22 11:38:01;;;;;;;6.78;3.28;;;30.00;45.90;;;;;;5115313;28;20035;-76
2021/08/22 11:40:29;;;;;;;4.93;3.22;;;30.00;44.80;;;;;;5115260;28;20085;-76
2021/08/22 11:42:58;;;;;;;5.65;3.17;;;30.10;43.90;;;;;;5115026;28;20112;-77
2021/08/22 11:45:30;;;;;;;6.93;2.95;;;30.10;44.80;;;;;;5115219;28;20028;-75
2021/08/22 11:47:57;;;;;;;7.45;2.90;;;30.10;45.40;;;;;;5115385;28;20058;-77
2021/08/22 11:50:27;;;;;;;5.30;3.00;;;30.10;45.60;;;;;;5115103;28;20028;-75
2021/08/22 11:52:58;;;;;;;11.13;3.00;;;30.20;45.30;;;;;;5114946;28;20039;-76
2021/08/22 11:55:31;;;;;;;7.53;2.92;;;30.30;45.60;;;;;;5115117;28;20036;-75
2021/08/22 11:58:10;;;;;;;5.28;2.92;;;30.30;45.20;;;;;;5114860;28;20036;-75
2021/08/22 12:00:41;;;;;;;3.80;2.95;;;30.40;44.60;;;;;;5114404;28;20039;-73
2021/08/22 12:03:12;;;;;;;5.72;3.13;;;30.40;45.60;;;;;;5115022;28;20050;-74
2021/08/22 12:05:55;;;;;;;10.68;3.42;;;30.40;44.90;;;;;;5114082;28;20050;-73
2021/08/22 12:08:21;;;;;;;6.40;3.10;;;30.50;45.20;;;;;;5114508;28;20475;-72
2021/08/22 12:10:47;;;;;;;5.82;3.33;;;30.50;45.10;;;;;;5114692;28;20043;-71
2021/08/22 12:13:22;;;;;;;7.60;3.22;;;30.50;45.40;;;;;;5114675;28;20047;-73
2021/08/22 12:15:49;;;;;;;10.10;3.50;;;30.60;45.00;;;;;;5114266;28;20032;-71
2021/08/22 12:18:18;;;;;;;9.57;3.47;;;30.60;45.00;;;;;;5114369;28;20039;-75
2021/08/22 12:20:49;;;;;;;6.70;3.22;;;30.60;45.60;;;;;;5114777;28;20040;-74
2021/08/22 12:23:15;;;;;;;7.95;3.10;;;30.70;45.00;;;;;;5114485;28;20044;-74
2021/08/22 12:25:41;;;;;;;6.25;3.83;;;30.70;44.90;;;;;;5114190;28;20030;-72
2021/08/22 12:28:29;;;;;;;4.28;3.10;;;30.80;44.80;;;;;;5114179;28;20111;-72
2021/08/22 12:31:09;;;;;;;4.75;3.15;;;30.80;45.40;;;;;;5113987;28;20028;-73
2021/08/22 12:33:42;;;;;;;8.88;3.25;;;30.90;45.70;;;;;;5114425;28;20028;-72
2021/08/22 12:36:17;;;;;;;9.77;3.40;;;30.90;44.70;;;;;;5114341;28;20114;-72
2021/08/22 12:38:47;;;;;;;10.13;3.95;;;30.90;45.60;;;;;;5113650;28;20039;-74
2021/08/22 12:41:41;;;;;;;5.15;3.25;;;30.90;45.20;;;;;;5114057;28;20053;-73
2021/08/22 12:44:09;;;;;;;15.25;3.15;;;31.00;45.30;;;;;;5113946;28;20075;-74
2021/08/22 12:46:37;;;;;;;10.40;3.38;;;31.00;44.90;;;;;;5113377;28;20024;-73
2021/08/22 12:49:04;;;;;;;5.78;3.45;;;31.00;44.90;;;;;;5113821;28;20047;-69
2021/08/22 12:51:31;;;;;;;10.07;3.10;;;31.00;44.20;;;;;;5113943;28;20039;-72
2021/08/22 12:53:58;;;;;;;7.50;3.33;;;31.00;43.60;;;;;;5113601;28;20036;-72
2021/08/22 12:56:25;;;;;;;4.70;2.90;;;31.10;44.50;;;;;;5113681;28;20043;-73
2021/08/22 12:58:52;;;;;;;8.93;3.58;;;31.00;44.70;;;;;;5113655;28;20073;-74